sensor_id;sensor_type;location;lat;lon;timestamp;temperature;humidity
10492;DHT22;5293;51.464;-2.566;2023-08-12T00:00:20;17.80;99.90
10492;DHT22;5293;51.464;-2.566;2023-08-12T00:02:46;17.70;99.90
10492;DHT22;5293;51.464;-2.566;2023-08-12T00:05:12;17.80;99.90
10492;DHT22;5293;51.464;-2.566;2023-08-12T00:07:41;17.70;99.90
10492;DHT22;5293;51.464;-2.566;2023-08-12T00:10:08;17.70;99.90
10492;DHT22;5293;51.464;-2.566;2023-08-12T00:12:35;17.60;99.90
10492;DHT22;5293;51.464;-2.566;2023-08-12T00:15:02;17.60;99.90
10492;DHT22;5293;51.464;-2.566;2023-08-12T00:17:28;17.60;99.90
10492;DHT22;5293;51.464;-2.566;2023-08-12T00:19:53;17.60;99.90
10492;DHT22;5293;51.464;-2.566;2023-08-12T00:22:19;17.60;99.90
10492;DHT22;5293;51.464;-2.566;2023-08-12T00:24:45;17.60;99.90
10492;DHT22;5293;51.464;-2.566;2023-08-12T00:27:11;17.70;99.90
10492;DHT22;5293;51.464;-2.566;2023-08-12T00:29:37;17.60;99.90
10492;DHT22;5293;51.464;-2.566;2023-08-12T00:32:03;17.60;99.90
10492;DHT22;5293;51.464;-2.566;2023-08-12T00:34:29;17.60;99.90
10492;DHT22;5293;51.464;-2.566;2023-08-12T00:36:54;17.60;99.90
10492;DHT22;5293;51.464;-2.566;2023-08-12T00:39:20;17.50;99.90
10492;DHT22;5293;51.464;-2.566;2023-08-12T00:41:46;17.50;99.90
10492;DHT22;5293;51.464;-2.566;2023-08-12T00:44:12;17.60;99.90
10492;DHT22;5293;51.464;-2.566;2023-08-12T00:46:43;17.60;99.90
10492;DHT22;5293;51.464;-2.566;2023-08-12T00:49:10;17.60;99.90
10492;DHT22;5293;51.464;-2.566;2023-08-12T00:51:38;17.60;99.90
10492;DHT22;5293;51.464;-2.566;2023-08-12T00:54:05;17.50;99.90
10492;DHT22;5293;51.464;-2.566;2023-08-12T00:56:31;17.50;99.90
10492;DHT22;5293;51.464;-2.566;2023-08-12T00:58:59;17.50;99.90
10492;DHT22;5293;51.464;-2.566;2023-08-12T01:01:25;17.40;99.90
10492;DHT22;5293;51.464;-2.566;2023-08-12T01:03:52;17.40;99.90
10492;DHT22;5293;51.464;-2.566;2023-08-12T01:06:17;17.40;99.90
10492;DHT22;5293;51.464;-2.566;2023-08-12T01:08:43;17.40;99.90
10492;DHT22;5293;51.464;-2.566;2023-08-12T01:11:29;17.40;99.90
10492;DHT22;5293;51.464;-2.566;2023-08-12T01:14:13;17.30;99.90
10492;DHT22;5293;51.464;-2.566;2023-08-12T01:16:44;17.30;99.90
10492;DHT22;5293;51.464;-2.566;2023-08-12T01:21:55;17.20;99.90
10492;DHT22;5293;51.464;-2.566;2023-08-12T01:24:24;17.10;99.90
10492;DHT22;5293;51.464;-2.566;2023-08-12T01:26:50;17.20;99.90
10492;DHT22;5293;51.464;-2.566;2023-08-12T01:29:17;17.20;99.90
10492;DHT22;5293;51.464;-2.566;2023-08-12T01:31:50;17.20;99.90
10492;DHT22;5293;51.464;-2.566;2023-08-12T01:37:25;17.30;99.90
10492;DHT22;5293;51.464;-2.566;2023-08-12T01:39:53;17.30;99.90
10492;DHT22;5293;51.464;-2.566;2023-08-12T01:42:20;17.30;99.90
10492;DHT22;5293;51.464;-2.566;2023-08-12T01:44:47;17.40;99.90
10492;DHT22;5293;51.464;-2.566;2023-08-12T01:47:13;17.40;99.90
10492;DHT22;5293;51.464;-2.566;2023-08-12T01:49:39;17.30;99.90
10492;DHT22;5293;51.464;-2.566;2023-08-12T01:52:05;17.30;99.90
10492;DHT22;5293;51.464;-2.566;2023-08-12T01:54:30;17.40;99.90
10492;DHT22;5293;51.464;-2.566;2023-08-12T01:57:04;17.40;99.90
10492;DHT22;5293;51.464;-2.566;2023-08-12T01:59:34;17.30;99.90
10492;DHT22;5293;51.464;-2.566;2023-08-12T02:01:59;17.20;99.90
10492;DHT22;5293;51.464;-2.566;2023-08-12T02:04:26;17.20;99.90
10492;DHT22;5293;51.464;-2.566;2023-08-12T02:06:52;17.30;99.90
10492;DHT22;5293;51.464;-2.566;2023-08-12T02:09:18;17.20;99.90
10492;DHT22;5293;51.464;-2.566;2023-08-12T02:11:44;17.30;99.90
10492;DHT22;5293;51.464;-2.566;2023-08-12T02:14:09;17.30;99.90
10492;DHT22;5293;51.464;-2.566;2023-08-12T02:16:35;17.30;99.90
10492;DHT22;5293;51.464;-2.566;2023-08-12T02:19:01;17.30;99.90
10492;DHT22;5293;51.464;-2.566;2023-08-12T02:21:27;17.20;99.90
10492;DHT22;5293;51.464;-2.566;2023-08-12T02:23:52;17.20;99.90
10492;DHT22;5293;51.464;-2.566;2023-08-12T02:26:18;17.20;99.90
10492;DHT22;5293;51.464;-2.566;2023-08-12T02:28:43;17.20;99.90
10492;DHT22;5293;51.464;-2.566;2023-08-12T02:31:09;17.20;99.90
10492;DHT22;5293;51.464;-2.566;2023-08-12T02:33:35;17.10;99.90
10492;DHT22;5293;51.464;-2.566;2023-08-12T02:36:00;17.10;99.90
10492;DHT22;5293;51.464;-2.566;2023-08-12T02:38:26;17.00;99.90
10492;DHT22;5293;51.464;-2.566;2023-08-12T02:40:52;17.10;99.90
10492;DHT22;5293;51.464;-2.566;2023-08-12T02:43:17;17.10;99.90
10492;DHT22;5293;51.464;-2.566;2023-08-12T02:45:43;17.00;99.90
10492;DHT22;5293;51.464;-2.566;2023-08-12T02:48:12;17.00;99.90
10492;DHT22;5293;51.464;-2.566;2023-08-12T02:50:38;17.00;99.90
10492;DHT22;5293;51.464;-2.566;2023-08-12T02:53:05;17.00;99.90
10492;DHT22;5293;51.464;-2.566;2023-08-12T02:55:30;17.10;99.90
10492;DHT22;5293;51.464;-2.566;2023-08-12T02:57:58;17.20;99.90
10492;DHT22;5293;51.464;-2.566;2023-08-12T03:00:23;17.30;99.90
10492;DHT22;5293;51.464;-2.566;2023-08-12T03:02:49;17.20;99.90
10492;DHT22;5293;51.464;-2.566;2023-08-12T03:05:15;17.30;99.90
10492;DHT22;5293;51.464;-2.566;2023-08-12T03:07:41;17.30;99.90
10492;DHT22;5293;51.464;-2.566;2023-08-12T03:10:07;17.40;99.90
10492;DHT22;5293;51.464;-2.566;2023-08-12T03:12:33;17.40;99.90
10492;DHT22;5293;51.464;-2.566;2023-08-12T03:14:58;17.30;99.90
10492;DHT22;5293;51.464;-2.566;2023-08-12T03:17:24;17.40;99.90
10492;DHT22;5293;51.464;-2.566;2023-08-12T03:19:50;17.40;99.90
10492;DHT22;5293;51.464;-2.566;2023-08-12T03:22:16;17.30;99.90
10492;DHT22;5293;51.464;-2.566;2023-08-12T03:24:42;17.30;99.90
10492;DHT22;5293;51.464;-2.566;2023-08-12T03:27:07;17.30;99.90
10492;DHT22;5293;51.464;-2.566;2023-08-12T03:29:33;17.30;99.90
10492;DHT22;5293;51.464;-2.566;2023-08-12T03:31:59;17.30;99.90
10492;DHT22;5293;51.464;-2.566;2023-08-12T03:34:24;17.30;99.90
10492;DHT22;5293;51.464;-2.566;2023-08-12T03:36:50;17.30;99.90
10492;DHT22;5293;51.464;-2.566;2023-08-12T03:39:16;17.30;99.90
10492;DHT22;5293;51.464;-2.566;2023-08-12T03:41:42;17.30;99.90
10492;DHT22;5293;51.464;-2.566;2023-08-12T03:44:08;17.30;99.90
10492;DHT22;5293;51.464;-2.566;2023-08-12T03:46:33;17.20;99.90
10492;DHT22;5293;51.464;-2.566;2023-08-12T03:48:59;17.30;99.90
10492;DHT22;5293;51.464;-2.566;2023-08-12T03:51:25;17.30;99.90
10492;DHT22;5293;51.464;-2.566;2023-08-12T03:53:51;17.30;99.90
10492;DHT22;5293;51.464;-2.566;2023-08-12T03:56:16;17.30;99.90
10492;DHT22;5293;51.464;-2.566;2023-08-12T03:58:43;17.30;99.90
10492;DHT22;5293;51.464;-2.566;2023-08-12T04:01:08;17.30;99.90
10492;DHT22;5293;51.464;-2.566;2023-08-12T04:03:34;17.30;99.90
10492;DHT22;5293;51.464;-2.566;2023-08-12T04:05:59;17.30;99.90
10492;DHT22;5293;51.464;-2.566;2023-08-12T04:08:25;17.30;99.90
10492;DHT22;5293;51.464;-2.566;2023-08-12T04:10:51;17.20;99.90
10492;DHT22;5293;51.464;-2.566;2023-08-12T04:13:17;17.10;99.90
10492;DHT22;5293;51.464;-2.566;2023-08-12T04:15:47;17.20;99.90
10492;DHT22;5293;51.464;-2.566;2023-08-12T04:18:13;17.20;99.90
10492;DHT22;5293;51.464;-2.566;2023-08-12T04:20:39;17.20;99.90
10492;DHT22;5293;51.464;-2.566;2023-08-12T04:23:05;17.20;99.90
10492;DHT22;5293;51.464;-2.566;2023-08-12T04:25:31;17.30;99.90
10492;DHT22;5293;51.464;-2.566;2023-08-12T04:27:56;17.20;99.90
10492;DHT22;5293;51.464;-2.566;2023-08-12T04:30:22;17.20;99.90
10492;DHT22;5293;51.464;-2.566;2023-08-12T04:32:47;17.20;99.90
10492;DHT22;5293;51.464;-2.566;2023-08-12T04:35:13;17.30;99.90
10492;DHT22;5293;51.464;-2.566;2023-08-12T04:37:39;17.20;99.90
10492;DHT22;5293;51.464;-2.566;2023-08-12T04:40:05;17.20;99.90
10492;DHT22;5293;51.464;-2.566;2023-08-12T04:42:33;17.20;99.90
10492;DHT22;5293;51.464;-2.566;2023-08-12T04:44:58;17.10;99.90
10492;DHT22;5293;51.464;-2.566;2023-08-12T04:47:24;17.20;99.90
10492;DHT22;5293;51.464;-2.566;2023-08-12T04:49:50;17.20;99.90
10492;DHT22;5293;51.464;-2.566;2023-08-12T04:52:15;17.20;99.90
10492;DHT22;5293;51.464;-2.566;2023-08-12T04:54:41;17.20;99.90
10492;DHT22;5293;51.464;-2.566;2023-08-12T04:57:07;17.10;99.90
10492;DHT22;5293;51.464;-2.566;2023-08-12T04:59:32;17.10;99.90
10492;DHT22;5293;51.464;-2.566;2023-08-12T05:01:58;17.20;99.90
10492;DHT22;5293;51.464;-2.566;2023-08-12T05:04:23;17.20;99.90
10492;DHT22;5293;51.464;-2.566;2023-08-12T05:06:49;17.20;99.90
10492;DHT22;5293;51.464;-2.566;2023-08-12T05:09:15;17.10;99.90
10492;DHT22;5293;51.464;-2.566;2023-08-12T05:11:40;17.10;99.90
10492;DHT22;5293;51.464;-2.566;2023-08-12T05:14:06;17.10;99.90
10492;DHT22;5293;51.464;-2.566;2023-08-12T05:16:32;17.10;99.90
10492;DHT22;5293;51.464;-2.566;2023-08-12T05:18:57;17.10;99.90
10492;DHT22;5293;51.464;-2.566;2023-08-12T05:21:23;17.20;99.90
10492;DHT22;5293;51.464;-2.566;2023-08-12T05:23:49;17.20;99.90
10492;DHT22;5293;51.464;-2.566;2023-08-12T05:26:14;17.40;99.90
10492;DHT22;5293;51.464;-2.566;2023-08-12T05:28:40;17.50;99.90
10492;DHT22;5293;51.464;-2.566;2023-08-12T05:31:05;17.50;99.90
10492;DHT22;5293;51.464;-2.566;2023-08-12T05:33:31;17.60;99.90
10492;DHT22;5293;51.464;-2.566;2023-08-12T05:35:57;17.60;99.90
10492;DHT22;5293;51.464;-2.566;2023-08-12T05:38:22;17.70;99.90
10492;DHT22;5293;51.464;-2.566;2023-08-12T05:40:48;17.70;99.90
10492;DHT22;5293;51.464;-2.566;2023-08-12T05:43:14;17.70;99.90
10492;DHT22;5293;51.464;-2.566;2023-08-12T05:45:39;17.80;99.90
10492;DHT22;5293;51.464;-2.566;2023-08-12T05:48:05;17.70;99.90
10492;DHT22;5293;51.464;-2.566;2023-08-12T05:50:31;17.80;99.90
10492;DHT22;5293;51.464;-2.566;2023-08-12T05:52:56;17.80;99.90
10492;DHT22;5293;51.464;-2.566;2023-08-12T05:55:24;17.80;99.90
10492;DHT22;5293;51.464;-2.566;2023-08-12T05:57:50;17.80;99.90
10492;DHT22;5293;51.464;-2.566;2023-08-12T06:00:16;17.80;99.90
10492;DHT22;5293;51.464;-2.566;2023-08-12T06:02:42;17.90;99.90
10492;DHT22;5293;51.464;-2.566;2023-08-12T06:05:08;17.80;99.90
10492;DHT22;5293;51.464;-2.566;2023-08-12T06:07:34;17.90;99.90
10492;DHT22;5293;51.464;-2.566;2023-08-12T06:10:00;17.90;99.90
10492;DHT22;5293;51.464;-2.566;2023-08-12T06:12:26;18.00;99.90
10492;DHT22;5293;51.464;-2.566;2023-08-12T06:14:51;18.00;99.90
10492;DHT22;5293;51.464;-2.566;2023-08-12T06:17:17;18.10;99.90
10492;DHT22;5293;51.464;-2.566;2023-08-12T06:19:43;18.20;99.90
10492;DHT22;5293;51.464;-2.566;2023-08-12T06:22:08;18.30;99.90
10492;DHT22;5293;51.464;-2.566;2023-08-12T06:24:34;18.20;99.90
10492;DHT22;5293;51.464;-2.566;2023-08-12T06:27:00;18.30;99.90
10492;DHT22;5293;51.464;-2.566;2023-08-12T06:29:25;18.20;99.90
10492;DHT22;5293;51.464;-2.566;2023-08-12T06:31:52;18.20;99.90
10492;DHT22;5293;51.464;-2.566;2023-08-12T06:34:18;18.30;99.90
10492;DHT22;5293;51.464;-2.566;2023-08-12T06:36:43;18.20;99.90
10492;DHT22;5293;51.464;-2.566;2023-08-12T06:39:09;18.30;99.90
10492;DHT22;5293;51.464;-2.566;2023-08-12T06:41:35;18.30;99.90
10492;DHT22;5293;51.464;-2.566;2023-08-12T06:44:00;18.30;99.90
10492;DHT22;5293;51.464;-2.566;2023-08-12T06:46:26;18.40;99.90
10492;DHT22;5293;51.464;-2.566;2023-08-12T06:48:52;18.40;99.90
10492;DHT22;5293;51.464;-2.566;2023-08-12T06:51:17;18.30;99.90
10492;DHT22;5293;51.464;-2.566;2023-08-12T06:53:43;18.30;99.90
10492;DHT22;5293;51.464;-2.566;2023-08-12T06:56:09;18.30;99.90
10492;DHT22;5293;51.464;-2.566;2023-08-12T06:58:34;18.30;99.90
10492;DHT22;5293;51.464;-2.566;2023-08-12T07:01:00;18.30;99.90
10492;DHT22;5293;51.464;-2.566;2023-08-12T07:03:26;18.50;99.90
10492;DHT22;5293;51.464;-2.566;2023-08-12T07:05:53;18.50;99.90
10492;DHT22;5293;51.464;-2.566;2023-08-12T07:08:19;18.40;99.90
10492;DHT22;5293;51.464;-2.566;2023-08-12T07:10:45;18.50;99.90
10492;DHT22;5293;51.464;-2.566;2023-08-12T07:13:10;18.60;99.90
10492;DHT22;5293;51.464;-2.566;2023-08-12T07:15:36;18.60;99.90
10492;DHT22;5293;51.464;-2.566;2023-08-12T07:18:02;18.80;99.90
10492;DHT22;5293;51.464;-2.566;2023-08-12T07:20:28;19.00;99.90
10492;DHT22;5293;51.464;-2.566;2023-08-12T07:22:53;19.20;99.90
10492;DHT22;5293;51.464;-2.566;2023-08-12T07:25:19;19.20;99.90
10492;DHT22;5293;51.464;-2.566;2023-08-12T07:27:45;19.10;99.90
10492;DHT22;5293;51.464;-2.566;2023-08-12T07:30:11;19.20;99.90
10492;DHT22;5293;51.464;-2.566;2023-08-12T07:32:38;19.20;99.90
10492;DHT22;5293;51.464;-2.566;2023-08-12T07:35:05;19.40;99.90
10492;DHT22;5293;51.464;-2.566;2023-08-12T07:37:33;19.60;99.90
10492;DHT22;5293;51.464;-2.566;2023-08-12T07:39:59;19.60;99.90
10492;DHT22;5293;51.464;-2.566;2023-08-12T07:42:25;19.60;99.90
10492;DHT22;5293;51.464;-2.566;2023-08-12T07:44:50;19.60;99.90
10492;DHT22;5293;51.464;-2.566;2023-08-12T07:47:16;19.60;99.90
10492;DHT22;5293;51.464;-2.566;2023-08-12T07:49:43;19.80;99.90
10492;DHT22;5293;51.464;-2.566;2023-08-12T07:52:08;19.70;99.90
10492;DHT22;5293;51.464;-2.566;2023-08-12T07:54:34;19.70;99.90
10492;DHT22;5293;51.464;-2.566;2023-08-12T07:57:00;19.70;99.90
10492;DHT22;5293;51.464;-2.566;2023-08-12T07:59:25;19.80;99.90
10492;DHT22;5293;51.464;-2.566;2023-08-12T08:01:52;19.90;99.90
10492;DHT22;5293;51.464;-2.566;2023-08-12T08:04:17;19.80;99.90
10492;DHT22;5293;51.464;-2.566;2023-08-12T08:06:43;19.90;99.90
10492;DHT22;5293;51.464;-2.566;2023-08-12T08:09:09;19.90;99.90
10492;DHT22;5293;51.464;-2.566;2023-08-12T08:11:36;19.90;99.90
10492;DHT22;5293;51.464;-2.566;2023-08-12T08:14:02;19.80;99.90
10492;DHT22;5293;51.464;-2.566;2023-08-12T08:16:28;19.90;99.90
10492;DHT22;5293;51.464;-2.566;2023-08-12T08:18:53;19.80;99.90
10492;DHT22;5293;51.464;-2.566;2023-08-12T08:21:19;19.80;99.90
10492;DHT22;5293;51.464;-2.566;2023-08-12T08:23:45;19.80;99.90
10492;DHT22;5293;51.464;-2.566;2023-08-12T08:26:12;19.80;99.90
10492;DHT22;5293;51.464;-2.566;2023-08-12T08:28:38;20.00;99.90
10492;DHT22;5293;51.464;-2.566;2023-08-12T08:31:04;20.10;99.90
10492;DHT22;5293;51.464;-2.566;2023-08-12T08:33:29;20.10;99.90
10492;DHT22;5293;51.464;-2.566;2023-08-12T08:35:55;20.10;99.90
10492;DHT22;5293;51.464;-2.566;2023-08-12T08:38:21;20.10;99.90
10492;DHT22;5293;51.464;-2.566;2023-08-12T08:40:49;20.20;99.90
10492;DHT22;5293;51.464;-2.566;2023-08-12T08:43:15;20.30;99.90
10492;DHT22;5293;51.464;-2.566;2023-08-12T08:45:44;20.60;99.90
10492;DHT22;5293;51.464;-2.566;2023-08-12T08:48:11;20.80;99.90
10492;DHT22;5293;51.464;-2.566;2023-08-12T08:50:37;20.90;99.90
10492;DHT22;5293;51.464;-2.566;2023-08-12T08:53:06;21.00;99.90
10492;DHT22;5293;51.464;-2.566;2023-08-12T08:55:32;21.00;99.90
10492;DHT22;5293;51.464;-2.566;2023-08-12T08:57:58;20.90;99.90
10492;DHT22;5293;51.464;-2.566;2023-08-12T09:00:25;20.80;99.90
10492;DHT22;5293;51.464;-2.566;2023-08-12T09:02:51;20.80;99.90
10492;DHT22;5293;51.464;-2.566;2023-08-12T09:05:17;20.70;99.90
10492;DHT22;5293;51.464;-2.566;2023-08-12T09:07:43;20.60;99.90
10492;DHT22;5293;51.464;-2.566;2023-08-12T09:10:11;20.50;99.90
10492;DHT22;5293;51.464;-2.566;2023-08-12T09:12:37;20.70;99.90
10492;DHT22;5293;51.464;-2.566;2023-08-12T09:15:04;20.80;99.90
10492;DHT22;5293;51.464;-2.566;2023-08-12T09:17:30;20.80;99.90
10492;DHT22;5293;51.464;-2.566;2023-08-12T09:19:58;20.90;99.90
10492;DHT22;5293;51.464;-2.566;2023-08-12T09:22:25;20.80;99.90
10492;DHT22;5293;51.464;-2.566;2023-08-12T09:24:57;20.80;99.90
10492;DHT22;5293;51.464;-2.566;2023-08-12T09:27:24;20.80;99.90
10492;DHT22;5293;51.464;-2.566;2023-08-12T09:29:50;20.70;99.90
10492;DHT22;5293;51.464;-2.566;2023-08-12T09:32:19;20.80;99.90
10492;DHT22;5293;51.464;-2.566;2023-08-12T09:34:53;20.90;99.90
10492;DHT22;5293;51.464;-2.566;2023-08-12T09:37:20;21.00;99.90
10492;DHT22;5293;51.464;-2.566;2023-08-12T09:39:48;21.30;99.90
10492;DHT22;5293;51.464;-2.566;2023-08-12T09:42:15;21.30;99.90
10492;DHT22;5293;51.464;-2.566;2023-08-12T09:44:41;21.20;99.90
10492;DHT22;5293;51.464;-2.566;2023-08-12T09:47:07;21.30;99.90
10492;DHT22;5293;51.464;-2.566;2023-08-12T09:49:36;21.30;99.90
10492;DHT22;5293;51.464;-2.566;2023-08-12T09:52:07;21.40;99.90
10492;DHT22;5293;51.464;-2.566;2023-08-12T09:54:33;21.50;99.90
10492;DHT22;5293;51.464;-2.566;2023-08-12T09:57:01;21.50;99.90
10492;DHT22;5293;51.464;-2.566;2023-08-12T09:59:34;21.70;99.90
10492;DHT22;5293;51.464;-2.566;2023-08-12T10:02:02;22.10;99.90
10492;DHT22;5293;51.464;-2.566;2023-08-12T10:04:38;22.40;99.90
10492;DHT22;5293;51.464;-2.566;2023-08-12T10:07:10;22.70;99.90
10492;DHT22;5293;51.464;-2.566;2023-08-12T10:09:36;22.50;99.90
10492;DHT22;5293;51.464;-2.566;2023-08-12T10:12:03;22.50;99.90
10492;DHT22;5293;51.464;-2.566;2023-08-12T10:14:31;22.70;99.90
10492;DHT22;5293;51.464;-2.566;2023-08-12T10:16:57;22.70;99.90
10492;DHT22;5293;51.464;-2.566;2023-08-12T10:19:23;22.70;99.90
10492;DHT22;5293;51.464;-2.566;2023-08-12T10:21:55;22.50;99.90
10492;DHT22;5293;51.464;-2.566;2023-08-12T10:24:23;22.40;99.90
10492;DHT22;5293;51.464;-2.566;2023-08-12T10:26:51;22.40;99.90
10492;DHT22;5293;51.464;-2.566;2023-08-12T10:29:18;22.40;99.90
10492;DHT22;5293;51.464;-2.566;2023-08-12T10:31:45;22.10;99.90
10492;DHT22;5293;51.464;-2.566;2023-08-12T10:34:22;21.90;99.90
10492;DHT22;5293;51.464;-2.566;2023-08-12T10:36:53;21.90;99.90
10492;DHT22;5293;51.464;-2.566;2023-08-12T10:39:25;22.00;99.90
10492;DHT22;5293;51.464;-2.566;2023-08-12T10:41:52;22.00;99.90
10492;DHT22;5293;51.464;-2.566;2023-08-12T10:44:20;22.10;99.90
10492;DHT22;5293;51.464;-2.566;2023-08-12T10:46:51;22.30;99.90
10492;DHT22;5293;51.464;-2.566;2023-08-12T10:49:19;22.50;99.90
10492;DHT22;5293;51.464;-2.566;2023-08-12T10:51:47;22.50;99.90
10492;DHT22;5293;51.464;-2.566;2023-08-12T10:59:50;22.80;99.90
10492;DHT22;5293;51.464;-2.566;2023-08-12T11:02:20;22.70;99.90
10492;DHT22;5293;51.464;-2.566;2023-08-12T11:05:10;22.70;99.90
10492;DHT22;5293;51.464;-2.566;2023-08-12T11:07:47;22.70;99.90
10492;DHT22;5293;51.464;-2.566;2023-08-12T11:10:19;22.50;99.90
10492;DHT22;5293;51.464;-2.566;2023-08-12T11:15:19;22.00;99.90
10492;DHT22;5293;51.464;-2.566;2023-08-12T11:17:54;21.60;99.90
10492;DHT22;5293;51.464;-2.566;2023-08-12T11:20:21;21.30;99.90
10492;DHT22;5293;51.464;-2.566;2023-08-12T11:22:47;20.90;99.90
10492;DHT22;5293;51.464;-2.566;2023-08-12T11:25:14;20.40;99.90
10492;DHT22;5293;51.464;-2.566;2023-08-12T11:27:44;20.00;99.90
10492;DHT22;5293;51.464;-2.566;2023-08-12T11:30:15;19.80;99.90
10492;DHT22;5293;51.464;-2.566;2023-08-12T11:32:42;19.80;99.90
10492;DHT22;5293;51.464;-2.566;2023-08-12T11:35:09;19.60;99.90
10492;DHT22;5293;51.464;-2.566;2023-08-12T11:37:40;19.50;99.90
10492;DHT22;5293;51.464;-2.566;2023-08-12T11:40:07;19.50;99.90
10492;DHT22;5293;51.464;-2.566;2023-08-12T11:42:38;19.30;99.90
10492;DHT22;5293;51.464;-2.566;2023-08-12T11:45:05;19.20;99.90
10492;DHT22;5293;51.464;-2.566;2023-08-12T11:47:32;19.20;99.90
10492;DHT22;5293;51.464;-2.566;2023-08-12T11:49:58;19.30;99.90
10492;DHT22;5293;51.464;-2.566;2023-08-12T11:52:23;19.50;99.90
10492;DHT22;5293;51.464;-2.566;2023-08-12T11:54:50;19.80;99.90
10492;DHT22;5293;51.464;-2.566;2023-08-12T11:57:16;20.10;99.90
10492;DHT22;5293;51.464;-2.566;2023-08-12T11:59:43;20.10;99.90
10492;DHT22;5293;51.464;-2.566;2023-08-12T12:02:10;20.10;99.90
10492;DHT22;5293;51.464;-2.566;2023-08-12T12:04:37;20.30;99.90
10492;DHT22;5293;51.464;-2.566;2023-08-12T12:07:02;20.30;99.90
10492;DHT22;5293;51.464;-2.566;2023-08-12T12:09:32;20.30;99.90
10492;DHT22;5293;51.464;-2.566;2023-08-12T12:11:58;20.40;99.90
10492;DHT22;5293;51.464;-2.566;2023-08-12T12:14:25;20.40;99.90
10492;DHT22;5293;51.464;-2.566;2023-08-12T12:16:51;20.60;99.90
10492;DHT22;5293;51.464;-2.566;2023-08-12T12:19:18;20.90;99.90
10492;DHT22;5293;51.464;-2.566;2023-08-12T12:21:49;21.10;99.90
10492;DHT22;5293;51.464;-2.566;2023-08-12T12:24:16;21.40;99.90
10492;DHT22;5293;51.464;-2.566;2023-08-12T12:26:43;21.40;99.90
10492;DHT22;5293;51.464;-2.566;2023-08-12T12:29:09;21.60;99.90
10492;DHT22;5293;51.464;-2.566;2023-08-12T12:31:37;21.80;99.90
10492;DHT22;5293;51.464;-2.566;2023-08-12T12:34:03;21.80;99.90
10492;DHT22;5293;51.464;-2.566;2023-08-12T12:36:39;21.70;99.90
10492;DHT22;5293;51.464;-2.566;2023-08-12T12:39:06;21.70;99.90
10492;DHT22;5293;51.464;-2.566;2023-08-12T12:41:32;21.70;99.90
10492;DHT22;5293;51.464;-2.566;2023-08-12T12:44:00;21.60;99.90
10492;DHT22;5293;51.464;-2.566;2023-08-12T12:46:27;21.40;99.90
10492;DHT22;5293;51.464;-2.566;2023-08-12T12:48:52;21.10;99.90
10492;DHT22;5293;51.464;-2.566;2023-08-12T12:51:18;20.80;99.90
10492;DHT22;5293;51.464;-2.566;2023-08-12T12:53:44;20.60;99.90
10492;DHT22;5293;51.464;-2.566;2023-08-12T12:56:09;20.50;99.90
10492;DHT22;5293;51.464;-2.566;2023-08-12T12:58:37;20.30;99.90
10492;DHT22;5293;51.464;-2.566;2023-08-12T13:01:04;20.00;99.90
10492;DHT22;5293;51.464;-2.566;2023-08-12T13:03:31;19.80;99.90
10492;DHT22;5293;51.464;-2.566;2023-08-12T13:05:57;19.60;99.90
10492;DHT22;5293;51.464;-2.566;2023-08-12T13:08:23;19.50;99.90
10492;DHT22;5293;51.464;-2.566;2023-08-12T13:10:49;19.60;99.90
10492;DHT22;5293;51.464;-2.566;2023-08-12T13:13:16;19.70;99.90
10492;DHT22;5293;51.464;-2.566;2023-08-12T13:15:42;19.80;99.90
10492;DHT22;5293;51.464;-2.566;2023-08-12T13:18:08;19.80;99.90
10492;DHT22;5293;51.464;-2.566;2023-08-12T13:20:35;20.00;99.90
10492;DHT22;5293;51.464;-2.566;2023-08-12T13:23:01;20.00;99.90
10492;DHT22;5293;51.464;-2.566;2023-08-12T13:25:30;19.80;99.90
10492;DHT22;5293;51.464;-2.566;2023-08-12T13:27:57;19.80;99.90
10492;DHT22;5293;51.464;-2.566;2023-08-12T13:30:23;20.00;99.90
10492;DHT22;5293;51.464;-2.566;2023-08-12T13:32:48;20.30;99.90
10492;DHT22;5293;51.464;-2.566;2023-08-12T13:35:14;20.50;99.90
10492;DHT22;5293;51.464;-2.566;2023-08-12T13:37:40;20.60;99.90
10492;DHT22;5293;51.464;-2.566;2023-08-12T13:40:06;20.60;99.90
10492;DHT22;5293;51.464;-2.566;2023-08-12T13:42:32;20.80;99.90
10492;DHT22;5293;51.464;-2.566;2023-08-12T13:44:57;20.70;99.90
10492;DHT22;5293;51.464;-2.566;2023-08-12T13:47:23;20.80;99.90
10492;DHT22;5293;51.464;-2.566;2023-08-12T13:49:51;20.70;99.90
10492;DHT22;5293;51.464;-2.566;2023-08-12T13:52:16;20.80;99.90
10492;DHT22;5293;51.464;-2.566;2023-08-12T13:54:42;20.60;99.90
10492;DHT22;5293;51.464;-2.566;2023-08-12T13:57:08;20.50;99.90
10492;DHT22;5293;51.464;-2.566;2023-08-12T13:59:33;20.50;99.90
10492;DHT22;5293;51.464;-2.566;2023-08-12T14:01:59;20.60;99.90
10492;DHT22;5293;51.464;-2.566;2023-08-12T14:04:25;20.60;99.90
10492;DHT22;5293;51.464;-2.566;2023-08-12T14:06:50;20.60;99.90
10492;DHT22;5293;51.464;-2.566;2023-08-12T14:09:16;20.80;99.90
10492;DHT22;5293;51.464;-2.566;2023-08-12T14:11:43;20.90;99.90
10492;DHT22;5293;51.464;-2.566;2023-08-12T14:14:09;21.00;99.90
10492;DHT22;5293;51.464;-2.566;2023-08-12T14:16:35;20.90;99.90
10492;DHT22;5293;51.464;-2.566;2023-08-12T14:19:01;21.00;99.90
10492;DHT22;5293;51.464;-2.566;2023-08-12T14:21:27;21.20;99.90
10492;DHT22;5293;51.464;-2.566;2023-08-12T14:23:52;20.90;99.90
10492;DHT22;5293;51.464;-2.566;2023-08-12T14:26:18;20.90;99.90
10492;DHT22;5293;51.464;-2.566;2023-08-12T14:28:43;20.90;99.90
10492;DHT22;5293;51.464;-2.566;2023-08-12T14:31:09;20.80;99.90
10492;DHT22;5293;51.464;-2.566;2023-08-12T14:33:35;20.80;99.90
10492;DHT22;5293;51.464;-2.566;2023-08-12T14:36:03;20.80;99.90
10492;DHT22;5293;51.464;-2.566;2023-08-12T14:38:29;20.80;99.90
10492;DHT22;5293;51.464;-2.566;2023-08-12T14:40:55;20.80;99.90
10492;DHT22;5293;51.464;-2.566;2023-08-12T14:43:20;21.00;99.90
10492;DHT22;5293;51.464;-2.566;2023-08-12T14:45:46;21.10;99.90
10492;DHT22;5293;51.464;-2.566;2023-08-12T14:48:12;21.20;99.90
10492;DHT22;5293;51.464;-2.566;2023-08-12T14:50:40;21.30;99.90
10492;DHT22;5293;51.464;-2.566;2023-08-12T14:53:06;21.40;99.90
10492;DHT22;5293;51.464;-2.566;2023-08-12T14:55:31;21.50;99.90
10492;DHT22;5293;51.464;-2.566;2023-08-12T14:57:57;21.50;99.90
10492;DHT22;5293;51.464;-2.566;2023-08-12T15:00:23;21.40;99.90
10492;DHT22;5293;51.464;-2.566;2023-08-12T15:02:48;21.20;99.90
10492;DHT22;5293;51.464;-2.566;2023-08-12T15:05:14;21.20;99.90
10492;DHT22;5293;51.464;-2.566;2023-08-12T15:07:40;20.90;99.90
10492;DHT22;5293;51.464;-2.566;2023-08-12T15:10:05;21.00;99.90
10492;DHT22;5293;51.464;-2.566;2023-08-12T15:12:31;21.20;99.90
10492;DHT22;5293;51.464;-2.566;2023-08-12T15:14:57;21.10;99.90
10492;DHT22;5293;51.464;-2.566;2023-08-12T15:17:23;21.10;99.90
10492;DHT22;5293;51.464;-2.566;2023-08-12T15:19:49;21.30;99.90
10492;DHT22;5293;51.464;-2.566;2023-08-12T15:22:14;21.20;99.90
10492;DHT22;5293;51.464;-2.566;2023-08-12T15:24:40;21.30;99.90
10492;DHT22;5293;51.464;-2.566;2023-08-12T15:27:06;21.40;99.90
10492;DHT22;5293;51.464;-2.566;2023-08-12T15:29:31;21.20;99.90
10492;DHT22;5293;51.464;-2.566;2023-08-12T15:31:57;21.20;99.90
10492;DHT22;5293;51.464;-2.566;2023-08-12T15:34:23;21.30;99.90
10492;DHT22;5293;51.464;-2.566;2023-08-12T15:36:52;21.30;99.90
10492;DHT22;5293;51.464;-2.566;2023-08-12T15:39:19;21.40;99.90